createdAt,value
2019-04-26T00:02:29.543Z,5.60
2019-04-26T00:07:54.766Z,5.23
2019-04-26T00:13:24.474Z,5.50
2019-04-26T00:18:49.331Z,16.47
2019-04-26T00:21:18.666Z,19.27
2019-04-26T00:23:48.167Z,9.10
2019-04-26T00:26:17.858Z,20.63
2019-04-26T00:29:06.523Z,18.40
2019-04-26T00:31:35.873Z,18.77
2019-04-26T00:34:06.843Z,8.63
2019-04-26T00:36:36.184Z,9.80
2019-04-26T00:48:50.521Z,7.40
2019-04-26T00:51:19.916Z,8.97
2019-04-26T00:54:00.990Z,4.97
2019-04-26T01:00:16.879Z,5.00
2019-04-26T01:05:42.525Z,4.60
2019-04-26T01:08:12.118Z,4.70
2019-04-26T01:10:41.436Z,4.00
2019-04-26T01:13:10.772Z,4.70
2019-04-26T01:15:40.099Z,4.53
2019-04-26T01:18:09.452Z,5.00
2019-04-26T01:36:31.208Z,6.07
2019-04-26T01:42:48.217Z,5.37
2019-04-26T01:49:12.024Z,4.80
2019-04-26T01:52:19.949Z,4.70
2019-04-26T01:54:49.274Z,5.73
2019-04-26T02:00:45.119Z,4.87
2019-04-26T02:06:09.754Z,5.17
2019-04-26T02:08:39.079Z,4.90
2019-04-26T02:11:08.481Z,4.70
2019-04-26T02:13:37.805Z,5.00
2019-04-26T02:16:07.202Z,5.33
2019-04-26T02:18:36.966Z,4.80
2019-04-26T02:21:46.228Z,5.47
2019-04-26T02:24:34.735Z,4.93
2019-04-26T02:29:44.417Z,4.90
2019-04-26T02:35:16.185Z,4.90
2019-04-26T02:37:45.648Z,4.97
2019-04-26T02:40:35.135Z,5.07
2019-04-26T02:44:04.895Z,7.17
2019-04-26T02:52:58.302Z,5.80
2019-04-26T02:56:06.281Z,5.60
2019-04-26T02:59:14.383Z,5.00
2019-04-26T03:30:17.702Z,5.10
2019-04-26T03:33:26.355Z,5.00
2019-04-26T03:40:09.856Z,6.07
2019-04-26T03:43:17.873Z,5.20
2019-04-26T03:49:45.970Z,6.83
2019-04-26T04:04:41.616Z,5.07
2019-04-26T04:23:59.551Z,6.50
2019-04-26T04:27:07.540Z,7.30
2019-04-26T04:30:16.914Z,6.47
2019-04-26T04:33:24.820Z,7.83
2019-04-26T04:36:14.935Z,7.80
2019-04-26T04:43:16.227Z,8.80
2019-04-26T04:46:45.367Z,6.47
2019-04-26T05:08:06.687Z,7.20
2019-04-26T05:11:18.038Z,5.67
2019-04-26T05:14:25.958Z,7.50
2019-04-26T05:17:35.250Z,8.97
2019-04-26T05:20:43.178Z,6.13
2019-04-26T05:23:51.347Z,7.73
2019-04-26T05:31:08.986Z,14.23
2019-04-26T05:34:18.533Z,9.40
2019-04-26T05:37:26.464Z,10.70
2019-04-26T05:40:34.374Z,8.93
2019-04-26T05:47:06.089Z,8.53
2019-04-26T05:50:33.132Z,6.50
2019-04-26T05:53:42.376Z,6.43
2019-04-26T05:56:52.697Z,6.70
2019-04-26T06:15:34.819Z,8.47
2019-04-26T06:18:44.390Z,4.67
2019-04-26T06:25:27.622Z,4.67
2019-04-26T06:47:06.586Z,6.70
2019-04-26T06:59:19.635Z,4.67
2019-04-26T07:02:27.556Z,4.60
2019-04-26T07:12:18.757Z,4.70
2019-04-26T07:15:28.720Z,4.90
2019-04-26T07:18:41.926Z,5.70
2019-04-26T07:22:08.961Z,5.80
2019-04-26T07:25:18.200Z,6.10
2019-04-26T07:31:46.581Z,5.00
2019-04-26T07:37:56.571Z,5.93
2019-04-26T07:41:07.183Z,5.07
2019-04-26T07:44:36.468Z,4.97
2019-04-26T07:47:45.706Z,6.40
2019-04-26T07:50:53.709Z,5.10
2019-04-26T07:53:53.943Z,5.80
2019-04-26T08:02:57.757Z,5.03
2019-04-26T08:06:07.525Z,4.60
2019-04-26T08:09:26.213Z,5.73
2019-04-26T08:24:47.706Z,4.53
2019-04-26T08:43:35.703Z,5.90
2019-04-26T09:01:52.953Z,6.73
2019-04-26T09:05:02.191Z,5.20
2019-04-26T09:17:10.015Z,3.73
2019-04-26T09:19:39.347Z,4.13
2019-04-26T09:22:27.936Z,5.13
2019-04-26T09:25:11.192Z,4.40
2019-04-26T09:30:42.293Z,4.73
2019-04-26T09:33:49.651Z,3.67
2019-04-26T09:36:18.978Z,10.07
2019-04-26T09:38:48.318Z,5.23
2019-04-26T09:41:17.651Z,4.33
2019-04-26T09:43:48.949Z,7.37
2019-04-26T09:46:19.914Z,4.00
2019-04-26T09:48:56.990Z,4.10
2019-04-26T09:51:26.382Z,4.07
2019-04-26T09:53:55.899Z,5.20
2019-04-26T09:56:25.235Z,4.47
2019-04-26T09:58:54.563Z,11.83
2019-04-26T10:01:25.758Z,4.80
2019-04-26T10:03:54.987Z,4.90
2019-04-26T10:06:26.136Z,8.03
2019-04-26T10:08:55.387Z,4.10
2019-04-26T10:11:26.326Z,4.47
2019-04-26T10:13:57.527Z,4.50
2019-04-26T10:16:42.075Z,4.93
2019-04-26T10:19:10.064Z,4.30
2019-04-26T10:21:39.400Z,4.00
2019-04-26T10:24:08.830Z,5.40
2019-04-26T10:26:38.130Z,7.23
2019-04-26T10:29:07.535Z,4.40
2019-04-26T10:31:36.857Z,6.60
2019-04-26T10:34:07.663Z,4.30
2019-04-26T10:36:37.281Z,5.40
2019-04-26T10:39:09.127Z,4.97
2019-04-26T10:41:38.447Z,5.20
2019-04-26T10:44:07.776Z,4.23
2019-04-26T10:46:37.114Z,3.87
2019-04-26T10:49:26.113Z,5.03
2019-04-26T10:51:55.494Z,4.73
2019-04-26T10:54:25.185Z,4.70
2019-04-26T10:56:56.148Z,4.17
2019-04-26T10:59:31.777Z,4.87
2019-04-26T11:02:00.662Z,3.80
2019-04-26T11:04:30.059Z,3.67
2019-04-26T11:07:01.966Z,8.63
2019-04-26T11:09:30.691Z,8.63
2019-04-26T11:12:00.027Z,13.50
2019-04-26T11:14:29.358Z,8.20
2019-04-26T11:16:58.877Z,11.23
2019-04-26T11:19:28.415Z,6.90
2019-04-26T11:21:57.809Z,4.97
2019-04-26T11:24:27.130Z,6.60
2019-04-26T11:26:56.463Z,4.70
2019-04-26T11:29:28.729Z,8.63
2019-04-26T11:31:58.453Z,3.23
2019-04-26T11:34:27.882Z,6.60
2019-04-26T11:36:57.271Z,7.40
2019-04-26T11:39:28.223Z,4.40
2019-04-26T11:41:57.772Z,4.30
2019-04-26T11:44:27.637Z,3.90
2019-04-26T11:46:59.420Z,4.00
2019-04-26T11:49:29.108Z,3.87
2019-04-26T11:52:02.767Z,4.10
2019-04-26T11:54:29.870Z,5.50
2019-04-26T11:56:59.213Z,4.00
2019-04-26T11:59:30.544Z,4.60
2019-04-26T12:01:59.574Z,4.40
2019-04-26T12:04:39.500Z,4.10
2019-04-26T12:07:19.555Z,6.23
2019-04-26T12:09:53.337Z,5.57
2019-04-26T12:12:22.674Z,4.50
2019-04-26T12:14:52.014Z,7.63
2019-04-26T12:17:21.356Z,18.40
2019-04-26T12:19:52.188Z,3.90
2019-04-26T12:22:21.887Z,3.93
2019-04-26T12:24:51.221Z,3.83
2019-04-26T12:27:20.709Z,4.67
2019-04-26T12:29:50.029Z,4.30
2019-04-26T12:32:19.283Z,3.60
2019-04-26T12:34:48.607Z,3.67
2019-04-26T12:37:20.069Z,6.27
2019-04-26T12:39:48.985Z,4.07
2019-04-26T12:42:18.324Z,4.57
2019-04-26T12:44:52.314Z,4.00
2019-04-26T12:47:23.430Z,3.73
2019-04-26T12:49:54.461Z,3.83
2019-04-26T12:52:24.103Z,3.93
2019-04-26T12:54:53.573Z,3.90
2019-04-26T12:57:22.894Z,4.33
2019-04-26T12:59:52.317Z,3.80
2019-04-26T13:02:22.016Z,3.30
2019-04-26T13:04:51.361Z,4.47
2019-04-26T13:07:24.275Z,3.73
2019-04-26T13:10:01.096Z,3.70
2019-04-26T13:12:42.396Z,3.93
2019-04-26T13:15:40.249Z,3.60
2019-04-26T13:18:11.289Z,5.60
2019-04-26T13:20:40.635Z,5.87
2019-04-26T13:23:09.958Z,4.10
2019-04-26T13:25:40.563Z,3.87
2019-04-26T13:28:10.140Z,3.97
2019-04-26T13:30:40.102Z,5.53
2019-04-26T13:33:10.137Z,3.83
2019-04-26T13:35:41.348Z,3.80
2019-04-26T13:38:10.548Z,4.17
2019-04-26T13:40:40.324Z,4.47
2019-04-26T13:43:09.751Z,4.77
2019-04-26T13:45:52.769Z,6.63
2019-04-26T13:48:43.821Z,3.70
2019-04-26T13:51:15.841Z,4.23
2019-04-26T13:53:45.245Z,6.93
2019-04-26T13:56:14.578Z,4.30
2019-04-26T13:58:44.014Z,3.80
2019-04-26T14:01:14.567Z,4.80
2019-04-26T14:03:44.377Z,4.30
2019-04-26T14:06:13.710Z,4.57
2019-04-26T14:08:43.029Z,4.53
2019-04-26T14:11:12.365Z,5.03
2019-04-26T14:13:41.745Z,4.00
2019-04-26T14:16:11.505Z,4.77
2019-04-26T14:18:40.869Z,4.53
2019-04-26T14:21:10.191Z,4.90
2019-04-26T14:23:45.342Z,4.67
2019-04-26T14:26:28.694Z,5.00
2019-04-26T14:28:59.436Z,8.30
2019-04-26T14:31:29.028Z,6.23
2019-04-26T14:34:01.174Z,5.20
2019-04-26T14:36:29.668Z,4.83
2019-04-26T14:39:05.712Z,9.00
2019-04-26T14:41:30.185Z,4.90
2019-04-26T14:43:59.817Z,5.67
2019-04-26T14:46:29.147Z,5.50
2019-04-26T14:49:01.928Z,5.37
2019-04-26T14:51:30.480Z,5.73
2019-04-26T14:53:59.806Z,5.50
2019-04-26T14:56:30.835Z,4.87
2019-04-26T14:59:01.715Z,4.33
2019-04-26T15:01:35.205Z,3.60
2019-04-26T15:04:23.244Z,3.63
2019-04-26T15:06:58.241Z,3.87
2019-04-26T15:09:32.935Z,3.77
2019-04-26T15:12:00.979Z,4.33
2019-04-26T15:14:27.782Z,3.80
2019-04-26T15:16:57.112Z,3.70
2019-04-26T15:19:26.669Z,4.00
2019-04-26T15:21:55.996Z,6.63
2019-04-26T15:24:25.996Z,4.10
2019-04-26T15:26:58.162Z,4.73
2019-04-26T15:29:27.209Z,8.70
2019-04-26T15:31:58.339Z,5.00
2019-04-26T15:34:27.891Z,3.97
2019-04-26T15:36:57.213Z,3.67
2019-04-26T15:39:36.791Z,4.23
2019-04-26T15:45:15.093Z,5.60
2019-04-26T15:47:58.611Z,4.87
2019-04-26T15:50:48.419Z,4.60
2019-04-26T15:53:15.628Z,7.53
2019-04-26T15:55:45.033Z,4.40
2019-04-26T15:58:14.422Z,4.90
2019-04-26T16:00:43.821Z,5.67
2019-04-26T16:03:32.872Z,4.83
2019-04-26T16:06:23.651Z,6.33
2019-04-26T16:08:59.213Z,4.13
2019-04-26T16:11:28.559Z,4.73
2019-04-26T16:13:57.900Z,4.40
2019-04-26T16:16:29.148Z,5.30
2019-04-26T16:19:17.391Z,6.23
2019-04-26T16:21:48.182Z,4.37
2019-04-26T16:24:35.662Z,6.17
2019-04-26T16:27:05.063Z,6.37
2019-04-26T16:29:58.408Z,14.33
2019-04-26T16:32:54.154Z,10.67
2019-04-26T16:38:44.329Z,7.43
2019-04-26T16:41:13.650Z,8.10
2019-04-26T16:46:33.413Z,4.77
2019-04-26T16:49:12.389Z,10.33
2019-04-26T16:52:01.830Z,5.30
2019-04-26T16:54:29.153Z,10.30
2019-04-26T16:56:58.850Z,5.50
2019-04-26T16:59:35.278Z,5.43
2019-04-26T17:00:46.617Z,13.70
2019-04-26T17:02:04.680Z,8.13
2019-04-26T17:04:43.414Z,4.90
2019-04-26T17:07:22.290Z,6.63
2019-04-26T17:09:58.926Z,5.77
2019-04-26T17:12:30.810Z,5.17
2019-04-26T17:15:00.159Z,5.57
2019-04-26T17:17:29.482Z,10.80
2019-04-26T17:19:58.813Z,5.97
2019-04-26T17:22:56.868Z,6.67
2019-04-26T17:25:43.289Z,5.00
2019-04-26T17:28:14.035Z,6.10
2019-04-26T17:31:02.810Z,5.33
2019-04-26T17:33:32.645Z,7.23
2019-04-26T17:36:22.268Z,4.77
2019-04-26T17:38:51.609Z,5.33
2019-04-26T17:41:20.942Z,5.37
2019-04-26T17:44:12.686Z,5.30
2019-04-26T17:47:02.071Z,5.70
2019-04-26T17:49:40.182Z,8.03
2019-04-26T17:52:13.064Z,5.70
2019-04-26T17:54:47.480Z,5.10
2019-04-26T17:57:36.738Z,6.13
2019-04-26T18:03:14.686Z,5.37
2019-04-26T18:06:01.479Z,5.53
2019-04-26T18:08:37.023Z,5.90
2019-04-26T18:11:24.724Z,5.87
2019-04-26T18:13:58.056Z,5.83
2019-04-26T18:16:29.690Z,6.17
2019-04-26T18:19:24.751Z,5.97
2019-04-26T18:24:54.519Z,9.50
2019-04-26T18:27:24.053Z,37.03
2019-04-26T18:30:53.887Z,16.50
2019-04-26T18:33:26.003Z,26.30
2019-04-26T18:36:13.439Z,44.97
2019-04-26T18:38:48.473Z,32.53
2019-04-26T18:41:33.954Z,26.40
2019-04-26T18:44:09.543Z,31.83
2019-04-26T18:46:58.076Z,28.93
2019-04-26T18:49:27.646Z,15.20
2019-04-26T18:51:57.248Z,14.90
2019-04-26T18:54:47.817Z,19.13
2019-04-26T18:57:24.480Z,12.67
2019-04-26T18:59:53.833Z,28.33
2019-04-26T19:05:23.534Z,25.50
2019-04-26T19:07:55.618Z,37.50
2019-04-26T19:10:43.073Z,31.20
2019-04-26T19:13:36.603Z,54.00
2019-04-26T19:16:40.772Z,31.60
2019-04-26T19:22:20.880Z,39.67
2019-04-26T19:24:57.425Z,53.60
2019-04-26T19:27:33.274Z,29.53
2019-04-26T19:30:27.791Z,29.63
2019-04-26T19:32:57.096Z,17.27
2019-04-26T19:35:26.425Z,20.30
2019-04-26T19:37:56.070Z,20.93
2019-04-26T19:40:27.391Z,22.57
2019-04-26T19:43:07.394Z,29.60
2019-04-26T19:45:57.294Z,16.43
2019-04-26T19:48:49.499Z,34.63
2019-04-26T19:52:14.314Z,21.77
2019-04-26T19:55:02.770Z,25.43
2019-04-26T20:00:28.313Z,8.17
2019-04-26T20:02:57.712Z,11.10
2019-04-26T20:05:27.124Z,9.17
2019-04-26T20:07:58.405Z,8.63
2019-04-26T20:10:46.815Z,7.77
2019-04-26T20:13:16.699Z,7.63
2019-04-26T20:16:06.451Z,10.87
2019-04-26T20:18:38.960Z,10.43
2019-04-26T20:21:25.858Z,8.73
2019-04-26T20:23:55.179Z,9.03
2019-04-26T20:26:24.521Z,6.57
2019-04-26T20:28:53.849Z,8.03
2019-04-26T20:31:47.605Z,9.47
2019-04-26T20:34:18.856Z,8.33
2019-04-26T20:36:48.194Z,6.60
2019-04-26T20:39:38.490Z,9.53
2019-04-26T20:42:07.830Z,6.80
2019-04-26T20:44:49.047Z,8.77
2019-04-26T20:47:17.418Z,10.33
2019-04-26T20:50:00.264Z,8.87
2019-04-26T20:52:26.479Z,6.67
2019-04-26T20:54:55.879Z,7.80
2019-04-26T20:57:26.622Z,15.00
2019-04-26T21:00:54.098Z,15.43
2019-04-26T21:03:27.824Z,6.90
2019-04-26T21:06:02.927Z,15.23
2019-04-26T21:08:38.038Z,12.70
2019-04-26T21:11:07.385Z,17.00
2019-04-26T21:13:42.515Z,18.63
2019-04-26T21:16:15.188Z,24.23
2019-04-26T21:19:01.993Z,15.73
2019-04-26T21:21:32.079Z,14.83
2019-04-26T21:27:51.735Z,15.87
2019-04-26T21:30:59.435Z,9.40
2019-04-26T21:36:27.658Z,12.80
2019-04-26T21:39:16.183Z,6.10
2019-04-26T21:44:26.360Z,5.60
2019-04-26T21:46:58.696Z,7.13
2019-04-26T21:49:32.652Z,6.20
2019-04-26T21:52:08.598Z,5.97
2019-04-26T21:54:37.941Z,9.07
2019-04-26T21:57:07.443Z,6.13
2019-04-26T21:59:40.990Z,5.40
2019-04-26T22:02:29.757Z,12.10
2019-04-26T22:05:08.048Z,6.77
2019-04-26T22:07:47.456Z,6.20
2019-04-26T22:13:37.254Z,10.63
2019-04-26T22:19:27.970Z,7.93
2019-04-26T22:22:23.224Z,21.80
2019-04-26T22:25:17.365Z,6.70
2019-04-26T22:27:46.690Z,11.80
2019-04-26T22:32:58.430Z,9.53
2019-04-26T22:35:46.477Z,6.37
2019-04-26T22:38:17.584Z,6.97
2019-04-26T22:40:55.928Z,9.90
2019-04-26T22:46:50.406Z,9.27
2019-04-26T22:52:28.842Z,10.73
2019-04-26T22:54:58.180Z,23.10
2019-04-26T22:57:27.577Z,16.33
2019-04-26T22:59:56.913Z,17.70
2019-04-26T23:02:27.664Z,20.30
2019-04-26T23:08:14.413Z,26.23
2019-04-26T23:13:42.947Z,30.23
2019-04-26T23:16:40.443Z,33.77
2019-04-26T23:19:54.255Z,32.17
2019-04-26T23:25:27.720Z,24.77
2019-04-26T23:28:01.159Z,42.30
2019-04-26T23:30:35.645Z,24.67
2019-04-26T23:33:05.053Z,21.33
2019-04-26T23:35:37.420Z,15.53
2019-04-26T23:38:11.241Z,21.90
2019-04-26T23:40:40.566Z,17.30
2019-04-26T23:43:09.927Z,12.77
2019-04-26T23:45:58.591Z,11.80
2019-04-26T23:48:27.949Z,12.83
2019-04-26T23:50:59.819Z,9.60
2019-04-26T23:53:35.913Z,9.53
2019-04-26T23:56:10.402Z,7.97
2019-04-26T23:58:40.230Z,11.40
